Aspen-Gerbaz, Colorado
Current Conditions -  °F | °C
As of 6:53 PM on Wednesday 17 Dec 2014 (Local Time) from KASE Reporting Station
Light Snow Light Snow  
Wind Chill: 29°   Ceiling: 2100
Heat Index: 29°   Visibility: 5mi
Dew Point: 27°   Wind: 0mph
Humidity: 92%   Direction: NA
Pressure: 29.96"   Gusts: NA
Location:  39.1256°N, 106.797°W
Report Text: KASE 180153Z 00000KT 5SM -SN BR BKN021 OVC025 M02/M03 A2996 RMK AO2 SLP147 P0000 T10171028
Loading
Personal Weather Stations






























Interactive Weather Map New forecast layout! Learn more

10-Day Weather Forecast

Advertisements
Track Severe Weather on mobile